sensor_id;sensor_type;location;lat;lon;timestamp;P1;durP1;ratioP1;P2;durP2;ratioP2
73840;SDS011;62183;49.006;12.102;2022-11-03T00:01:06;33.22;;;13.23;;
73840;SDS011;62183;49.006;12.102;2022-11-03T00:03:31;32.17;;;11.87;;
73840;SDS011;62183;49.006;12.102;2022-11-03T00:05:56;34.37;;;12.73;;
73840;SDS011;62183;49.006;12.102;2022-11-03T00:08:21;26.93;;;11.40;;
73840;SDS011;62183;49.006;12.102;2022-11-03T00:10:46;30.80;;;11.30;;
73840;SDS011;62183;49.006;12.102;2022-11-03T00:13:12;29.00;;;9.77;;
73840;SDS011;62183;49.006;12.102;2022-11-03T00:15:37;27.77;;;10.43;;
73840;SDS011;62183;49.006;12.102;2022-11-03T00:18:11;34.78;;;11.48;;
73840;SDS011;62183;49.006;12.102;2022-11-03T00:20:36;32.27;;;10.77;;
73840;SDS011;62183;49.006;12.102;2022-11-03T00:23:01;36.13;;;10.80;;
73840;SDS011;62183;49.006;12.102;2022-11-03T00:25:26;44.83;;;11.63;;
73840;SDS011;62183;49.006;12.102;2022-11-03T00:27:55;30.53;;;11.70;;
73840;SDS011;62183;49.006;12.102;2022-11-03T00:30:20;35.28;;;11.77;;
73840;SDS011;62183;49.006;12.102;2022-11-03T00:32:45;30.67;;;10.63;;
73840;SDS011;62183;49.006;12.102;2022-11-03T00:35:10;34.80;;;11.27;;
73840;SDS011;62183;49.006;12.102;2022-11-03T00:37:35;35.93;;;10.83;;
73840;SDS011;62183;49.006;12.102;2022-11-03T00:40:00;38.33;;;11.43;;
73840;SDS011;62183;49.006;12.102;2022-11-03T00:42:26;32.27;;;10.60;;
73840;SDS011;62183;49.006;12.102;2022-11-03T00:44:51;24.43;;;9.77;;
73840;SDS011;62183;49.006;12.102;2022-11-03T00:47:16;26.50;;;10.40;;
73840;SDS011;62183;49.006;12.102;2022-11-03T00:49:41;28.53;;;10.00;;
73840;SDS011;62183;49.006;12.102;2022-11-03T00:52:06;23.37;;;9.77;;
73840;SDS011;62183;49.006;12.102;2022-11-03T00:54:31;21.10;;;10.17;;
73840;SDS011;62183;49.006;12.102;2022-11-03T00:56:57;13.27;;;8.40;;
73840;SDS011;62183;49.006;12.102;2022-11-03T00:59:22;16.47;;;8.20;;
73840;SDS011;62183;49.006;12.102;2022-11-03T01:01:47;17.60;;;8.10;;
73840;SDS011;62183;49.006;12.102;2022-11-03T01:04:12;16.30;;;7.67;;
73840;SDS011;62183;49.006;12.102;2022-11-03T01:06:39;15.20;;;7.90;;
73840;SDS011;62183;49.006;12.102;2022-11-03T01:09:04;11.60;;;7.68;;
73840;SDS011;62183;49.006;12.102;2022-11-03T01:11:29;11.53;;;7.13;;
73840;SDS011;62183;49.006;12.102;2022-11-03T01:13:55;11.20;;;7.60;;
73840;SDS011;62183;49.006;12.102;2022-11-03T01:16:20;14.55;;;6.88;;
73840;SDS011;62183;49.006;12.102;2022-11-03T01:18:45;12.63;;;7.15;;
73840;SDS011;62183;49.006;12.102;2022-11-03T01:21:11;8.60;;;6.40;;
73840;SDS011;62183;49.006;12.102;2022-11-03T01:23:36;11.43;;;7.40;;
73840;SDS011;62183;49.006;12.102;2022-11-03T01:26:05;10.03;;;6.57;;
73840;SDS011;62183;49.006;12.102;2022-11-03T01:28:32;8.32;;;6.35;;
73840;SDS011;62183;49.006;12.102;2022-11-03T01:31:01;11.27;;;7.15;;
73840;SDS011;62183;49.006;12.102;2022-11-03T01:33:26;11.55;;;7.03;;
73840;SDS011;62183;49.006;12.102;2022-11-03T01:35:52;11.97;;;6.90;;
73840;SDS011;62183;49.006;12.102;2022-11-03T01:38:17;12.20;;;6.63;;
73840;SDS011;62183;49.006;12.102;2022-11-03T01:40:42;14.13;;;7.40;;
73840;SDS011;62183;49.006;12.102;2022-11-03T01:43:17;11.70;;;6.73;;
73840;SDS011;62183;49.006;12.102;2022-11-03T01:45:42;13.57;;;7.32;;
73840;SDS011;62183;49.006;12.102;2022-11-03T01:48:08;14.98;;;8.35;;
73840;SDS011;62183;49.006;12.102;2022-11-03T01:50:35;13.75;;;7.40;;
73840;SDS011;62183;49.006;12.102;2022-11-03T01:53:00;10.43;;;6.97;;
73840;SDS011;62183;49.006;12.102;2022-11-03T01:55:30;10.98;;;6.80;;
73840;SDS011;62183;49.006;12.102;2022-11-03T01:57:58;9.20;;;6.82;;
73840;SDS011;62183;49.006;12.102;2022-11-03T02:00:24;9.38;;;5.97;;
73840;SDS011;62183;49.006;12.102;2022-11-03T02:02:49;10.37;;;6.00;;
73840;SDS011;62183;49.006;12.102;2022-11-03T02:05:15;11.38;;;6.97;;
73840;SDS011;62183;49.006;12.102;2022-11-03T02:10:12;10.88;;;6.68;;
73840;SDS011;62183;49.006;12.102;2022-11-03T02:12:37;9.67;;;6.50;;
73840;SDS011;62183;49.006;12.102;2022-11-03T02:15:10;8.88;;;6.68;;
73840;SDS011;62183;49.006;12.102;2022-11-03T02:17:37;11.70;;;6.68;;
73840;SDS011;62183;49.006;12.102;2022-11-03T02:20:04;11.82;;;6.70;;
73840;SDS011;62183;49.006;12.102;2022-11-03T02:25:01;9.97;;;6.40;;
73840;SDS011;62183;49.006;12.102;2022-11-03T02:27:28;12.02;;;6.97;;
73840;SDS011;62183;49.006;12.102;2022-11-03T02:29:53;7.15;;;5.72;;
73840;SDS011;62183;49.006;12.102;2022-11-03T02:32:22;10.73;;;6.60;;
73840;SDS011;62183;49.006;12.102;2022-11-03T02:34:49;11.02;;;6.30;;
73840;SDS011;62183;49.006;12.102;2022-11-03T02:37:24;10.88;;;6.25;;
73840;SDS011;62183;49.006;12.102;2022-11-03T02:40:02;12.95;;;6.90;;
73840;SDS011;62183;49.006;12.102;2022-11-03T02:42:28;10.80;;;7.18;;
73840;SDS011;62183;49.006;12.102;2022-11-03T02:44:54;11.88;;;7.47;;
73840;SDS011;62183;49.006;12.102;2022-11-03T02:47:21;12.43;;;7.18;;
73840;SDS011;62183;49.006;12.102;2022-11-03T02:49:48;12.02;;;7.65;;
73840;SDS011;62183;49.006;12.102;2022-11-03T02:57:59;12.52;;;8.15;;
73840;SDS011;62183;49.006;12.102;2022-11-03T03:00:28;11.75;;;7.93;;
73840;SDS011;62183;49.006;12.102;2022-11-03T03:03:05;13.45;;;7.53;;
73840;SDS011;62183;49.006;12.102;2022-11-03T03:05:32;11.70;;;7.38;;
73840;SDS011;62183;49.006;12.102;2022-11-03T03:08:02;11.82;;;6.93;;
73840;SDS011;62183;49.006;12.102;2022-11-03T03:10:33;12.48;;;7.97;;
73840;SDS011;62183;49.006;12.102;2022-11-03T03:13:00;15.07;;;6.80;;
73840;SDS011;62183;49.006;12.102;2022-11-03T03:15:38;13.65;;;7.10;;
73840;SDS011;62183;49.006;12.102;2022-11-03T03:18:25;11.07;;;8.02;;
73840;SDS011;62183;49.006;12.102;2022-11-03T03:20:56;13.02;;;7.60;;
73840;SDS011;62183;49.006;12.102;2022-11-03T03:23:23;9.55;;;7.13;;
73840;SDS011;62183;49.006;12.102;2022-11-03T03:26:00;10.95;;;7.70;;
73840;SDS011;62183;49.006;12.102;2022-11-03T03:28:29;12.18;;;8.88;;
73840;SDS011;62183;49.006;12.102;2022-11-03T03:30:56;9.65;;;6.53;;
73840;SDS011;62183;49.006;12.102;2022-11-03T03:33:23;10.70;;;7.18;;
73840;SDS011;62183;49.006;12.102;2022-11-03T03:35:49;11.35;;;7.40;;
73840;SDS011;62183;49.006;12.102;2022-11-03T03:38:23;8.80;;;6.65;;
73840;SDS011;62183;49.006;12.102;2022-11-03T03:40:50;14.23;;;7.30;;
73840;SDS011;62183;49.006;12.102;2022-11-03T03:43:16;11.10;;;7.65;;
73840;SDS011;62183;49.006;12.102;2022-11-03T03:45:43;13.63;;;6.82;;
73840;SDS011;62183;49.006;12.102;2022-11-03T03:48:08;12.82;;;7.47;;
73840;SDS011;62183;49.006;12.102;2022-11-03T03:50:35;12.83;;;7.93;;
73840;SDS011;62183;49.006;12.102;2022-11-03T03:53:05;12.52;;;7.85;;
73840;SDS011;62183;49.006;12.102;2022-11-03T03:55:41;9.95;;;6.03;;
73840;SDS011;62183;49.006;12.102;2022-11-03T03:58:07;8.57;;;6.22;;
73840;SDS011;62183;49.006;12.102;2022-11-03T04:00:34;8.27;;;6.03;;
73840;SDS011;62183;49.006;12.102;2022-11-03T04:02:59;8.80;;;5.57;;
73840;SDS011;62183;49.006;12.102;2022-11-03T04:05:25;7.77;;;5.07;;
73840;SDS011;62183;49.006;12.102;2022-11-03T04:07:50;7.22;;;5.10;;
73840;SDS011;62183;49.006;12.102;2022-11-03T04:10:16;9.63;;;5.67;;
73840;SDS011;62183;49.006;12.102;2022-11-03T04:12:42;8.25;;;4.93;;
73840;SDS011;62183;49.006;12.102;2022-11-03T04:15:11;9.52;;;5.90;;
73840;SDS011;62183;49.006;12.102;2022-11-03T04:17:37;7.25;;;5.20;;
73840;SDS011;62183;49.006;12.102;2022-11-03T04:20:08;9.63;;;5.53;;
73840;SDS011;62183;49.006;12.102;2022-11-03T04:22:36;9.60;;;5.78;;
73840;SDS011;62183;49.006;12.102;2022-11-03T04:25:01;12.70;;;5.67;;
73840;SDS011;62183;49.006;12.102;2022-11-03T04:27:33;8.73;;;5.70;;
73840;SDS011;62183;49.006;12.102;2022-11-03T04:30:01;7.30;;;5.22;;
73840;SDS011;62183;49.006;12.102;2022-11-03T04:32:27;16.27;;;5.72;;
73840;SDS011;62183;49.006;12.102;2022-11-03T04:34:52;17.42;;;6.22;;
73840;SDS011;62183;49.006;12.102;2022-11-03T04:37:17;22.02;;;6.82;;
73840;SDS011;62183;49.006;12.102;2022-11-03T04:39:42;12.73;;;5.73;;
73840;SDS011;62183;49.006;12.102;2022-11-03T04:44:39;12.15;;;6.90;;
73840;SDS011;62183;49.006;12.102;2022-11-03T04:47:07;203.47;;;21.43;;
73840;SDS011;62183;49.006;12.102;2022-11-03T04:49:33;16.48;;;6.53;;
73840;SDS011;62183;49.006;12.102;2022-11-03T04:51:58;7.20;;;5.23;;
73840;SDS011;62183;49.006;12.102;2022-11-03T04:54:24;8.80;;;5.47;;
73840;SDS011;62183;49.006;12.102;2022-11-03T04:56:49;7.80;;;5.30;;
73840;SDS011;62183;49.006;12.102;2022-11-03T04:59:15;11.27;;;5.97;;
73840;SDS011;62183;49.006;12.102;2022-11-03T05:01:40;9.48;;;5.47;;
73840;SDS011;62183;49.006;12.102;2022-11-03T05:04:16;15.65;;;6.10;;
73840;SDS011;62183;49.006;12.102;2022-11-03T05:06:43;10.05;;;6.18;;
73840;SDS011;62183;49.006;12.102;2022-11-03T05:09:14;8.75;;;6.32;;
73840;SDS011;62183;49.006;12.102;2022-11-03T05:11:46;10.57;;;5.18;;
73840;SDS011;62183;49.006;12.102;2022-11-03T05:16:36;8.17;;;4.83;;
73840;SDS011;62183;49.006;12.102;2022-11-03T05:19:01;10.40;;;5.60;;
73840;SDS011;62183;49.006;12.102;2022-11-03T05:21:27;12.13;;;5.60;;
73840;SDS011;62183;49.006;12.102;2022-11-03T05:24:00;6.50;;;4.97;;
73840;SDS011;62183;49.006;12.102;2022-11-03T05:26:30;13.30;;;5.72;;
73840;SDS011;62183;49.006;12.102;2022-11-03T05:28:57;13.65;;;5.82;;
73840;SDS011;62183;49.006;12.102;2022-11-03T05:31:28;10.07;;;5.97;;
73840;SDS011;62183;49.006;12.102;2022-11-03T05:33:58;11.10;;;6.03;;
73840;SDS011;62183;49.006;12.102;2022-11-03T05:36:24;8.77;;;6.28;;
73840;SDS011;62183;49.006;12.102;2022-11-03T05:38:53;13.93;;;6.28;;
73840;SDS011;62183;49.006;12.102;2022-11-03T05:41:21;12.88;;;5.95;;
73840;SDS011;62183;49.006;12.102;2022-11-03T05:43:59;9.98;;;5.10;;
73840;SDS011;62183;49.006;12.102;2022-11-03T05:46:25;7.97;;;4.80;;
73840;SDS011;62183;49.006;12.102;2022-11-03T05:48:51;16.15;;;5.60;;
73840;SDS011;62183;49.006;12.102;2022-11-03T05:51:31;8.82;;;5.28;;
73840;SDS011;62183;49.006;12.102;2022-11-03T05:53:58;11.07;;;5.38;;
73840;SDS011;62183;49.006;12.102;2022-11-03T05:56:25;7.95;;;5.13;;
73840;SDS011;62183;49.006;12.102;2022-11-03T05:58:51;10.90;;;5.17;;
73840;SDS011;62183;49.006;12.102;2022-11-03T06:01:33;6.32;;;4.75;;
73840;SDS011;62183;49.006;12.102;2022-11-03T06:03:59;8.02;;;5.20;;
73840;SDS011;62183;49.006;12.102;2022-11-03T06:06:27;21.27;;;6.13;;
73840;SDS011;62183;49.006;12.102;2022-11-03T06:08:54;8.63;;;5.40;;
73840;SDS011;62183;49.006;12.102;2022-11-03T06:11:27;10.27;;;6.18;;
73840;SDS011;62183;49.006;12.102;2022-11-03T06:13:55;12.85;;;5.30;;
73840;SDS011;62183;49.006;12.102;2022-11-03T06:16:38;22.15;;;6.35;;
73840;SDS011;62183;49.006;12.102;2022-11-03T06:19:38;9.10;;;6.10;;
73840;SDS011;62183;49.006;12.102;2022-11-03T06:22:07;6.53;;;4.72;;
73840;SDS011;62183;49.006;12.102;2022-11-03T06:24:35;5.95;;;4.55;;
73840;SDS011;62183;49.006;12.102;2022-11-03T06:27:00;6.10;;;4.85;;
73840;SDS011;62183;49.006;12.102;2022-11-03T06:29:25;9.73;;;5.90;;
73840;SDS011;62183;49.006;12.102;2022-11-03T06:31:54;14.93;;;7.55;;
73840;SDS011;62183;49.006;12.102;2022-11-03T06:36:48;19.58;;;5.82;;
73840;SDS011;62183;49.006;12.102;2022-11-03T06:39:20;13.33;;;5.80;;
73840;SDS011;62183;49.006;12.102;2022-11-03T06:41:46;6.25;;;4.60;;
73840;SDS011;62183;49.006;12.102;2022-11-03T06:44:29;7.00;;;3.97;;
73840;SDS011;62183;49.006;12.102;2022-11-03T06:49:26;10.00;;;5.13;;
73840;SDS011;62183;49.006;12.102;2022-11-03T06:51:52;18.60;;;6.65;;
73840;SDS011;62183;49.006;12.102;2022-11-03T06:54:17;12.80;;;5.80;;
73840;SDS011;62183;49.006;12.102;2022-11-03T06:56:42;14.40;;;6.43;;
73840;SDS011;62183;49.006;12.102;2022-11-03T06:59:08;12.07;;;6.83;;
73840;SDS011;62183;49.006;12.102;2022-11-03T07:01:33;20.90;;;6.68;;
73840;SDS011;62183;49.006;12.102;2022-11-03T07:04:00;7.10;;;5.05;;
73840;SDS011;62183;49.006;12.102;2022-11-03T07:06:28;5.95;;;4.28;;
73840;SDS011;62183;49.006;12.102;2022-11-03T07:08:54;6.82;;;4.50;;
73840;SDS011;62183;49.006;12.102;2022-11-03T07:11:23;8.38;;;4.45;;
73840;SDS011;62183;49.006;12.102;2022-11-03T07:13:50;14.73;;;4.93;;
73840;SDS011;62183;49.006;12.102;2022-11-03T07:16:27;6.57;;;4.50;;
73840;SDS011;62183;49.006;12.102;2022-11-03T07:18:53;15.77;;;4.38;;
73840;SDS011;62183;49.006;12.102;2022-11-03T07:21:23;22.67;;;6.13;;
73840;SDS011;62183;49.006;12.102;2022-11-03T07:23:49;6.75;;;5.13;;
73840;SDS011;62183;49.006;12.102;2022-11-03T07:26:14;7.20;;;5.47;;
73840;SDS011;62183;49.006;12.102;2022-11-03T07:28:40;8.77;;;6.03;;
73840;SDS011;62183;49.006;12.102;2022-11-03T07:31:09;15.27;;;5.68;;
73840;SDS011;62183;49.006;12.102;2022-11-03T07:33:36;14.40;;;6.47;;
73840;SDS011;62183;49.006;12.102;2022-11-03T07:36:01;16.50;;;5.20;;
73840;SDS011;62183;49.006;12.102;2022-11-03T07:38:27;8.65;;;5.18;;
73840;SDS011;62183;49.006;12.102;2022-11-03T07:40:52;6.82;;;6.03;;
73840;SDS011;62183;49.006;12.102;2022-11-03T07:45:50;11.02;;;5.97;;
73840;SDS011;62183;49.006;12.102;2022-11-03T07:50:47;9.02;;;5.45;;
73840;SDS011;62183;49.006;12.102;2022-11-03T07:53:14;20.42;;;6.22;;
73840;SDS011;62183;49.006;12.102;2022-11-03T07:55:42;31.77;;;7.43;;
73840;SDS011;62183;49.006;12.102;2022-11-03T07:58:17;20.52;;;6.32;;
73840;SDS011;62183;49.006;12.102;2022-11-03T08:00:44;7.57;;;5.20;;
73840;SDS011;62183;49.006;12.102;2022-11-03T08:03:12;7.07;;;4.77;;
73840;SDS011;62183;49.006;12.102;2022-11-03T08:05:42;5.50;;;4.65;;
73840;SDS011;62183;49.006;12.102;2022-11-03T08:08:07;6.73;;;4.23;;
73840;SDS011;62183;49.006;12.102;2022-11-03T08:10:32;14.23;;;4.70;;
73840;SDS011;62183;49.006;12.102;2022-11-03T08:12:57;8.23;;;5.40;;
73840;SDS011;62183;49.006;12.102;2022-11-03T08:15:22;8.47;;;5.53;;
73840;SDS011;62183;49.006;12.102;2022-11-03T08:17:47;8.07;;;5.80;;
73840;SDS011;62183;49.006;12.102;2022-11-03T08:20:13;7.27;;;5.13;;
73840;SDS011;62183;49.006;12.102;2022-11-03T08:22:38;6.40;;;5.47;;
73840;SDS011;62183;49.006;12.102;2022-11-03T08:25:03;5.87;;;5.03;;
73840;SDS011;62183;49.006;12.102;2022-11-03T08:27:28;5.28;;;4.50;;
73840;SDS011;62183;49.006;12.102;2022-11-03T08:29:53;7.23;;;5.30;;
73840;SDS011;62183;49.006;12.102;2022-11-03T08:32:19;9.90;;;5.90;;
73840;SDS011;62183;49.006;12.102;2022-11-03T08:34:44;7.83;;;5.43;;
73840;SDS011;62183;49.006;12.102;2022-11-03T08:37:09;6.53;;;5.20;;
73840;SDS011;62183;49.006;12.102;2022-11-03T08:39:34;7.17;;;5.40;;
73840;SDS011;62183;49.006;12.102;2022-11-03T08:41:59;5.80;;;5.00;;
73840;SDS011;62183;49.006;12.102;2022-11-03T08:44:25;6.13;;;5.50;;
73840;SDS011;62183;49.006;12.102;2022-11-03T08:46:50;8.60;;;5.30;;
73840;SDS011;62183;49.006;12.102;2022-11-03T08:49:15;7.23;;;5.83;;
73840;SDS011;62183;49.006;12.102;2022-11-03T08:51:40;6.50;;;5.70;;
73840;SDS011;62183;49.006;12.102;2022-11-03T08:54:05;6.23;;;5.10;;
73840;SDS011;62183;49.006;12.102;2022-11-03T08:56:30;7.63;;;5.87;;
73840;SDS011;62183;49.006;12.102;2022-11-03T08:58:56;6.67;;;5.07;;
73840;SDS011;62183;49.006;12.102;2022-11-03T09:01:21;6.47;;;5.70;;
73840;SDS011;62183;49.006;12.102;2022-11-03T09:03:46;8.13;;;5.37;;
73840;SDS011;62183;49.006;12.102;2022-11-03T09:06:11;7.43;;;5.30;;
73840;SDS011;62183;49.006;12.102;2022-11-03T09:08:36;6.53;;;5.40;;
73840;SDS011;62183;49.006;12.102;2022-11-03T09:11:02;8.50;;;5.23;;
73840;SDS011;62183;49.006;12.102;2022-11-03T09:13:27;6.60;;;5.77;;
73840;SDS011;62183;49.006;12.102;2022-11-03T09:15:52;8.03;;;5.70;;
73840;SDS011;62183;49.006;12.102;2022-11-03T09:18:17;7.67;;;5.60;;
73840;SDS011;62183;49.006;12.102;2022-11-03T09:20:42;7.93;;;5.77;;
73840;SDS011;62183;49.006;12.102;2022-11-03T09:23:07;8.90;;;5.90;;
73840;SDS011;62183;49.006;12.102;2022-11-03T09:25:33;10.70;;;6.13;;
73840;SDS011;62183;49.006;12.102;2022-11-03T09:27:58;7.60;;;5.57;;
73840;SDS011;62183;49.006;12.102;2022-11-03T09:30:23;9.37;;;5.53;;
73840;SDS011;62183;49.006;12.102;2022-11-03T09:32:48;9.05;;;6.15;;
73840;SDS011;62183;49.006;12.102;2022-11-03T09:35:14;9.95;;;6.07;;
73840;SDS011;62183;49.006;12.102;2022-11-03T09:37:39;6.75;;;5.65;;
73840;SDS011;62183;49.006;12.102;2022-11-03T09:40:04;8.80;;;5.32;;
73840;SDS011;62183;49.006;12.102;2022-11-03T09:42:30;10.05;;;6.65;;
73840;SDS011;62183;49.006;12.102;2022-11-03T09:44:56;7.50;;;6.10;;
73840;SDS011;62183;49.006;12.102;2022-11-03T09:47:32;7.10;;;5.70;;
73840;SDS011;62183;49.006;12.102;2022-11-03T09:49:57;7.72;;;5.97;;
73840;SDS011;62183;49.006;12.102;2022-11-03T09:52:23;11.90;;;6.70;;
73840;SDS011;62183;49.006;12.102;2022-11-03T09:54:49;7.82;;;6.45;;
73840;SDS011;62183;49.006;12.102;2022-11-03T09:57:15;8.65;;;6.28;;
73840;SDS011;62183;49.006;12.102;2022-11-03T09:59:44;7.57;;;6.37;;
73840;SDS011;62183;49.006;12.102;2022-11-03T10:02:15;9.10;;;6.00;;
73840;SDS011;62183;49.006;12.102;2022-11-03T10:04:42;7.80;;;6.50;;
73840;SDS011;62183;49.006;12.102;2022-11-03T10:07:07;7.87;;;5.63;;
73840;SDS011;62183;49.006;12.102;2022-11-03T10:09:32;9.52;;;6.75;;
73840;SDS011;62183;49.006;12.102;2022-11-03T10:11:58;9.15;;;6.30;;
73840;SDS011;62183;49.006;12.102;2022-11-03T10:14:23;6.97;;;6.07;;
73840;SDS011;62183;49.006;12.102;2022-11-03T10:16:52;9.30;;;6.80;;
73840;SDS011;62183;49.006;12.102;2022-11-03T10:19:19;8.25;;;6.35;;
73840;SDS011;62183;49.006;12.102;2022-11-03T10:21:44;6.73;;;6.03;;
73840;SDS011;62183;49.006;12.102;2022-11-03T10:24:12;9.07;;;6.47;;
73840;SDS011;62183;49.006;12.102;2022-11-03T10:26:48;8.30;;;6.55;;
73840;SDS011;62183;49.006;12.102;2022-11-03T10:29:17;7.80;;;6.72;;
73840;SDS011;62183;49.006;12.102;2022-11-03T10:31:43;8.60;;;6.43;;
73840;SDS011;62183;49.006;12.102;2022-11-03T10:34:31;9.53;;;6.90;;
73840;SDS011;62183;49.006;12.102;2022-11-03T10:37:16;8.85;;;6.40;;
73840;SDS011;62183;49.006;12.102;2022-11-03T10:39:41;8.77;;;6.40;;
73840;SDS011;62183;49.006;12.102;2022-11-03T10:42:07;8.85;;;7.18;;
73840;SDS011;62183;49.006;12.102;2022-11-03T10:44:39;14.48;;;8.25;;
73840;SDS011;62183;49.006;12.102;2022-11-03T10:47:04;14.73;;;8.83;;
73840;SDS011;62183;49.006;12.102;2022-11-03T10:49:33;9.43;;;7.00;;
73840;SDS011;62183;49.006;12.102;2022-11-03T10:52:44;11.50;;;7.18;;
73840;SDS011;62183;49.006;12.102;2022-11-03T10:54:44;10.57;;;6.90;;
73840;SDS011;62183;49.006;12.102;2022-11-03T10:57:10;9.68;;;6.40;;
73840;SDS011;62183;49.006;12.102;2022-11-03T10:59:35;9.03;;;6.17;;
73840;SDS011;62183;49.006;12.102;2022-11-03T11:02:01;10.43;;;5.97;;
73840;SDS011;62183;49.006;12.102;2022-11-03T11:04:27;7.63;;;5.10;;
73840;SDS011;62183;49.006;12.102;2022-11-03T11:06:52;6.83;;;5.10;;
73840;SDS011;62183;49.006;12.102;2022-11-03T11:09:21;5.80;;;5.00;;
73840;SDS011;62183;49.006;12.102;2022-11-03T11:12:12;6.55;;;4.22;;
73840;SDS011;62183;49.006;12.102;2022-11-03T11:14:50;4.93;;;4.25;;
73840;SDS011;62183;49.006;12.102;2022-11-03T11:22:40;7.25;;;4.38;;
73840;SDS011;62183;49.006;12.102;2022-11-03T11:25:05;5.40;;;4.30;;
73840;SDS011;62183;49.006;12.102;2022-11-03T11:29:55;6.07;;;4.47;;
73840;SDS011;62183;49.006;12.102;2022-11-03T11:32:49;5.00;;;4.40;;
73840;SDS011;62183;49.006;12.102;2022-11-03T11:37:40;7.25;;;4.45;;
73840;SDS011;62183;49.006;12.102;2022-11-03T11:40:12;5.68;;;4.68;;
73840;SDS011;62183;49.006;12.102;2022-11-03T11:48:13;7.78;;;5.70;;
73840;SDS011;62183;49.006;12.102;2022-11-03T11:50:40;5.88;;;4.68;;
73840;SDS011;62183;49.006;12.102;2022-11-03T11:57:59;7.32;;;5.03;;
73840;SDS011;62183;49.006;12.102;2022-11-03T12:00:29;4.75;;;4.30;;
73840;SDS011;62183;49.006;12.102;2022-11-03T12:02:55;6.40;;;4.70;;
73840;SDS011;62183;49.006;12.102;2022-11-03T12:05:24;5.20;;;4.70;;
73840;SDS011;62183;49.006;12.102;2022-11-03T12:07:50;7.20;;;4.55;;
73840;SDS011;62183;49.006;12.102;2022-11-03T12:10:22;5.70;;;4.70;;
73840;SDS011;62183;49.006;12.102;2022-11-03T12:17:57;5.57;;;4.47;;
73840;SDS011;62183;49.006;12.102;2022-11-03T12:20:34;5.70;;;4.73;;
73840;SDS011;62183;49.006;12.102;2022-11-03T12:22:59;5.80;;;4.38;;
73840;SDS011;62183;49.006;12.102;2022-11-03T12:25:32;8.70;;;6.43;;
73840;SDS011;62183;49.006;12.102;2022-11-03T12:27:57;5.57;;;4.63;;
73840;SDS011;62183;49.006;12.102;2022-11-03T12:30:22;7.27;;;4.83;;
73840;SDS011;62183;49.006;12.102;2022-11-03T12:32:47;7.60;;;5.00;;
73840;SDS011;62183;49.006;12.102;2022-11-03T12:35:12;5.87;;;4.50;;
73840;SDS011;62183;49.006;12.102;2022-11-03T12:37:38;5.67;;;5.07;;
73840;SDS011;62183;49.006;12.102;2022-11-03T12:40:03;6.67;;;5.20;;
73840;SDS011;62183;49.006;12.102;2022-11-03T12:42:28;7.65;;;5.22;;
73840;SDS011;62183;49.006;12.102;2022-11-03T12:44:54;6.60;;;4.53;;
73840;SDS011;62183;49.006;12.102;2022-11-03T12:47:19;8.23;;;5.33;;
73840;SDS011;62183;49.006;12.102;2022-11-03T12:49:44;8.10;;;4.95;;
73840;SDS011;62183;49.006;12.102;2022-11-03T12:52:09;6.47;;;4.87;;
73840;SDS011;62183;49.006;12.102;2022-11-03T12:54:34;5.67;;;4.93;;
73840;SDS011;62183;49.006;12.102;2022-11-03T12:57:00;6.43;;;5.07;;
73840;SDS011;62183;49.006;12.102;2022-11-03T12:59:25;8.87;;;5.27;;
73840;SDS011;62183;49.006;12.102;2022-11-03T13:01:50;5.70;;;5.07;;
73840;SDS011;62183;49.006;12.102;2022-11-03T13:04:15;5.53;;;5.03;;
73840;SDS011;62183;49.006;12.102;2022-11-03T13:06:40;6.07;;;4.67;;
73840;SDS011;62183;49.006;12.102;2022-11-03T13:09:06;7.13;;;4.83;;
73840;SDS011;62183;49.006;12.102;2022-11-03T13:11:31;5.43;;;4.53;;
73840;SDS011;62183;49.006;12.102;2022-11-03T13:13:56;5.67;;;5.07;;
73840;SDS011;62183;49.006;12.102;2022-11-03T13:16:21;5.53;;;4.60;;
73840;SDS011;62183;49.006;12.102;2022-11-03T13:18:46;6.20;;;4.70;;
73840;SDS011;62183;49.006;12.102;2022-11-03T13:21:12;6.10;;;5.10;;
73840;SDS011;62183;49.006;12.102;2022-11-03T13:23:37;6.47;;;4.67;;
73840;SDS011;62183;49.006;12.102;2022-11-03T13:26:02;6.57;;;4.80;;
73840;SDS011;62183;49.006;12.102;2022-11-03T13:28:27;5.83;;;4.30;;
73840;SDS011;62183;49.006;12.102;2022-11-03T13:30:52;6.20;;;4.50;;
73840;SDS011;62183;49.006;12.102;2022-11-03T13:33:18;6.07;;;4.77;;
73840;SDS011;62183;49.006;12.102;2022-11-03T13:35:43;7.00;;;4.63;;
73840;SDS011;62183;49.006;12.102;2022-11-03T13:38:08;4.80;;;4.23;;
73840;SDS011;62183;49.006;12.102;2022-11-03T13:40:33;6.40;;;4.73;;
73840;SDS011;62183;49.006;12.102;2022-11-03T13:42:58;8.00;;;4.87;;
73840;SDS011;62183;49.006;12.102;2022-11-03T13:45:24;5.30;;;4.80;;
73840;SDS011;62183;49.006;12.102;2022-11-03T13:47:49;6.90;;;5.03;;
73840;SDS011;62183;49.006;12.102;2022-11-03T13:50:14;6.07;;;4.63;;
73840;SDS011;62183;49.006;12.102;2022-11-03T13:52:39;8.03;;;5.10;;
73840;SDS011;62183;49.006;12.102;2022-11-03T13:55:04;5.17;;;4.33;;
73840;SDS011;62183;49.006;12.102;2022-11-03T13:57:30;7.57;;;4.82;;
73840;SDS011;62183;49.006;12.102;2022-11-03T13:59:55;7.13;;;5.50;;
73840;SDS011;62183;49.006;12.102;2022-11-03T14:02:20;5.78;;;5.18;;
73840;SDS011;62183;49.006;12.102;2022-11-03T14:04:45;19.03;;;5.50;;
73840;SDS011;62183;49.006;12.102;2022-11-03T14:07:11;8.77;;;4.73;;
73840;SDS011;62183;49.006;12.102;2022-11-03T14:09:36;5.93;;;4.77;;
73840;SDS011;62183;49.006;12.102;2022-11-03T14:12:01;5.97;;;4.47;;
73840;SDS011;62183;49.006;12.102;2022-11-03T14:14:26;6.80;;;5.13;;
73840;SDS011;62183;49.006;12.102;2022-11-03T14:16:51;8.60;;;4.50;;
73840;SDS011;62183;49.006;12.102;2022-11-03T14:19:16;7.70;;;4.17;;
73840;SDS011;62183;49.006;12.102;2022-11-03T14:21:42;7.50;;;4.83;;
73840;SDS011;62183;49.006;12.102;2022-11-03T14:24:07;5.77;;;4.70;;
73840;SDS011;62183;49.006;12.102;2022-11-03T14:26:32;6.50;;;4.97;;
73840;SDS011;62183;49.006;12.102;2022-11-03T14:28:57;5.70;;;4.70;;
73840;SDS011;62183;49.006;12.102;2022-11-03T14:31:22;8.63;;;5.23;;
73840;SDS011;62183;49.006;12.102;2022-11-03T14:33:48;5.57;;;4.83;;
73840;SDS011;62183;49.006;12.102;2022-11-03T14:36:13;6.57;;;5.00;;
73840;SDS011;62183;49.006;12.102;2022-11-03T14:38:38;5.72;;;4.97;;
73840;SDS011;62183;49.006;12.102;2022-11-03T14:41:03;6.27;;;4.90;;
73840;SDS011;62183;49.006;12.102;2022-11-03T14:43:29;5.05;;;4.18;;
73840;SDS011;62183;49.006;12.102;2022-11-03T14:45:54;4.77;;;4.37;;
73840;SDS011;62183;49.006;12.102;2022-11-03T14:48:19;9.57;;;4.77;;
73840;SDS011;62183;49.006;12.102;2022-11-03T14:50:44;7.50;;;5.43;;
73840;SDS011;62183;49.006;12.102;2022-11-03T14:53:09;8.80;;;5.77;;
73840;SDS011;62183;49.006;12.102;2022-11-03T14:55:35;7.03;;;5.53;;
73840;SDS011;62183;49.006;12.102;2022-11-03T14:58:00;10.43;;;6.00;;
73840;SDS011;62183;49.006;12.102;2022-11-03T15:00:25;11.93;;;5.07;;
73840;SDS011;62183;49.006;12.102;2022-11-03T15:02:50;8.10;;;5.87;;
73840;SDS011;62183;49.006;12.102;2022-11-03T15:05:15;8.10;;;5.40;;
73840;SDS011;62183;49.006;12.102;2022-11-03T15:07:41;12.23;;;4.63;;
73840;SDS011;62183;49.006;12.102;2022-11-03T15:10:06;8.90;;;6.20;;
73840;SDS011;62183;49.006;12.102;2022-11-03T15:12:31;10.38;;;5.70;;
73840;SDS011;62183;49.006;12.102;2022-11-03T15:14:56;10.20;;;5.87;;
73840;SDS011;62183;49.006;12.102;2022-11-03T15:17:22;7.93;;;4.90;;
73840;SDS011;62183;49.006;12.102;2022-11-03T15:19:47;7.97;;;6.23;;